createdAt,value
2023-01-15T00:00:05.865Z,99748.63
2023-01-15T00:02:33.989Z,99747.53
2023-01-15T00:05:03.267Z,99745.22
2023-01-15T00:07:33.482Z,99756.50
2023-01-15T00:10:01.286Z,99748.31
2023-01-15T00:12:29.109Z,99752.25
2023-01-15T00:14:58.301Z,99746.97
2023-01-15T00:17:26.553Z,99753.59
2023-01-15T00:19:54.212Z,99754.63
2023-01-15T00:22:22.053Z,99753.28
2023-01-15T00:25:19.816Z,99763.31
2023-01-15T00:27:47.571Z,99752.50
2023-01-15T00:30:18.607Z,99749.38
2023-01-15T00:32:46.451Z,99750.41
2023-01-15T00:35:16.480Z,99739.38
2023-01-15T00:37:44.295Z,99750.16
2023-01-15T00:40:15.629Z,99740.75
2023-01-15T00:42:46.014Z,99742.09
2023-01-15T00:45:22.695Z,99753.66
2023-01-15T00:47:50.832Z,99736.72
2023-01-15T00:50:18.847Z,99748.31
2023-01-15T00:52:46.810Z,99744.41
2023-01-15T00:55:15.930Z,99744.41
2023-01-15T00:57:43.678Z,99753.09
2023-01-15T01:00:13.302Z,99748.88
2023-01-15T01:02:41.208Z,99751.25
2023-01-15T01:05:09.979Z,99744.91
2023-01-15T01:07:37.785Z,99747.25
2023-01-15T01:10:06.405Z,99756.22
2023-01-15T01:12:38.456Z,99749.13
2023-01-15T01:15:07.436Z,99749.06
2023-01-15T01:17:35.560Z,99750.91
2023-01-15T01:20:03.928Z,99744.84
2023-01-15T01:22:33.671Z,99746.44
2023-01-15T01:25:03.061Z,99743.00
2023-01-15T01:27:31.111Z,99751.44
2023-01-15T01:30:01.210Z,99746.19
2023-01-15T01:32:29.050Z,99760.69
2023-01-15T01:34:57.762Z,99755.91
2023-01-15T01:37:25.611Z,99759.03
2023-01-15T01:39:53.418Z,99750.66
2023-01-15T01:42:21.248Z,99776.47
2023-01-15T01:45:04.516Z,99762.53
2023-01-15T01:47:34.196Z,99768.28
2023-01-15T01:50:08.077Z,99775.41
2023-01-15T01:52:42.123Z,99782.78
2023-01-15T01:55:11.961Z,99776.41
2023-01-15T01:57:41.553Z,99782.72
2023-01-15T02:00:14.094Z,99774.31
2023-01-15T02:02:45.240Z,99775.97
2023-01-15T02:05:16.604Z,99774.31
2023-01-15T02:07:45.178Z,99771.75
2023-01-15T02:10:17.291Z,99762.81
2023-01-15T02:12:50.812Z,99771.75
2023-01-15T02:15:26.086Z,99758.84
2023-01-15T02:17:58.564Z,99771.19
2023-01-15T02:20:33.049Z,99751.25
2023-01-15T02:23:28.373Z,99761.53
2023-01-15T02:26:03.774Z,99739.47
2023-01-15T02:28:35.821Z,99749.38
2023-01-15T02:31:11.117Z,99746.25
2023-01-15T02:33:46.075Z,99751.81
2023-01-15T02:36:16.994Z,99757.06
2023-01-15T02:38:50.089Z,99765.94
2023-01-15T02:41:23.890Z,99758.34
2023-01-15T02:43:56.194Z,99757.25
2023-01-15T02:46:30.611Z,99769.13
2023-01-15T02:49:00.332Z,99767.03
2023-01-15T02:51:38.142Z,99749.69
2023-01-15T02:54:12.333Z,99754.94
2023-01-15T02:56:43.025Z,99753.16
2023-01-15T02:59:16.357Z,99750.81
2023-01-15T03:01:49.281Z,99751.31
2023-01-15T03:04:23.605Z,99755.56
2023-01-15T03:06:58.175Z,99752.66
2023-01-15T03:09:27.287Z,99739.28
2023-01-15T03:12:04.659Z,99735.88
2023-01-15T03:14:43.130Z,99736.41
2023-01-15T03:17:18.925Z,99733.78
2023-01-15T03:19:52.297Z,99733.47
2023-01-15T03:22:28.094Z,99746.13
2023-01-15T03:25:01.138Z,99765.56
2023-01-15T03:27:33.107Z,99741.84
2023-01-15T03:30:09.623Z,99754.78
2023-01-15T03:32:38.473Z,99738.72
2023-01-15T03:35:11.157Z,99740.06
2023-01-15T03:37:44.847Z,99744.78
2023-01-15T03:40:13.549Z,99736.41
2023-01-15T03:42:49.595Z,99731.69
2023-01-15T03:45:24.434Z,99742.50
2023-01-15T03:48:02.557Z,99737.31
2023-01-15T03:50:38.106Z,99752.28
2023-01-15T03:53:12.839Z,99747.31
2023-01-15T03:55:54.993Z,99745.25
2023-01-15T03:58:29.013Z,99738.66
2023-01-15T04:00:59.888Z,99731.03
2023-01-15T04:03:30.306Z,99724.44
2023-01-15T04:06:01.532Z,99736.81
2023-01-15T04:08:34.427Z,99738.66
2023-01-15T04:11:03.410Z,99725.78
2023-01-15T04:13:33.654Z,99731.81
2023-01-15T04:16:04.213Z,99735.53
2023-01-15T04:18:32.333Z,99731.81
2023-01-15T04:21:00.113Z,99726.00
2023-01-15T04:23:28.970Z,99743.13
2023-01-15T04:25:57.962Z,99733.97
2023-01-15T04:28:25.750Z,99742.88
2023-01-15T04:30:53.618Z,99732.38
2023-01-15T04:33:22.750Z,99727.91
2023-01-15T04:35:50.569Z,99729.75
2023-01-15T04:38:18.946Z,99727.91
2023-01-15T04:41:04.334Z,99721.59
2023-01-15T04:43:49.669Z,99726.56
2023-01-15T04:46:21.508Z,99720.31
2023-01-15T04:48:50.899Z,99730.03
2023-01-15T04:51:18.793Z,99730.03
2023-01-15T04:53:46.618Z,99734.81
2023-01-15T04:56:14.422Z,99747.44
2023-01-15T04:58:42.217Z,99735.09
2023-01-15T05:01:13.178Z,99725.09
2023-01-15T05:03:41.065Z,99727.72
2023-01-15T05:06:11.182Z,99731.69
2023-01-15T05:08:39.018Z,99732.72
2023-01-15T05:11:08.832Z,99725.69
2023-01-15T05:13:37.262Z,99730.59
2023-01-15T05:16:17.408Z,99744.03
2023-01-15T05:18:46.320Z,99729.56
2023-01-15T05:21:21.627Z,99734.31
2023-01-15T05:23:49.862Z,99720.63
2023-01-15T05:26:18.057Z,99708.81
2023-01-15T05:28:46.243Z,99708.81
2023-01-15T05:31:15.615Z,99718.31
2023-01-15T05:33:44.206Z,99722.22
2023-01-15T05:36:14.181Z,99723.56
2023-01-15T05:38:43.652Z,99707.31
2023-01-15T05:41:27.985Z,99709.72
2023-01-15T05:43:56.487Z,99706.81
2023-01-15T05:46:24.678Z,99710.50
2023-01-15T05:48:52.705Z,99714.97
2023-01-15T05:51:20.493Z,99703.19
2023-01-15T05:53:49.640Z,99717.88
2023-01-15T05:56:17.435Z,99711.88
2023-01-15T05:58:45.291Z,99717.13
2023-01-15T06:01:13.168Z,99717.13
2023-01-15T06:03:41.741Z,99722.38
2023-01-15T06:06:14.178Z,99716.31
2023-01-15T06:08:42.110Z,99716.03
2023-01-15T06:11:12.123Z,99727.63
2023-01-15T06:13:40.808Z,99716.31
2023-01-15T06:16:10.779Z,99703.47
2023-01-15T06:18:39.107Z,99722.13
2023-01-15T06:21:08.786Z,99724.25
2023-01-15T06:23:37.440Z,99729.53
2023-01-15T06:26:07.521Z,99729.59
2023-01-15T06:28:36.717Z,99746.75
2023-01-15T06:31:05.899Z,99744.19
2023-01-15T06:33:33.960Z,99752.69
2023-01-15T06:36:05.017Z,99757.97
2023-01-15T06:38:32.805Z,99752.78
2023-01-15T06:41:01.494Z,99742.56
2023-01-15T06:43:46.937Z,99745.00
2023-01-15T06:46:35.603Z,99743.47
2023-01-15T06:49:03.319Z,99750.41
2023-01-15T06:51:31.407Z,99740.97
2023-01-15T06:53:59.254Z,99740.97
2023-01-15T06:56:27.319Z,99739.44
2023-01-15T06:58:56.538Z,99736.84
2023-01-15T07:01:30.822Z,99736.38
2023-01-15T07:03:58.761Z,99733.81
2023-01-15T07:06:26.602Z,99728.88
2023-01-15T07:08:54.392Z,99735.19
2023-01-15T07:11:22.248Z,99738.88
2023-01-15T07:13:50.249Z,99739.13
2023-01-15T07:16:28.703Z,99735.72
2023-01-15T07:18:58.553Z,99747.53
2023-01-15T07:21:26.429Z,99748.31
2023-01-15T07:23:54.278Z,99739.13
2023-01-15T07:26:22.082Z,99744.63
2023-01-15T07:28:49.930Z,99762.16
2023-01-15T07:31:17.790Z,99745.91
2023-01-15T07:33:45.793Z,99736.97
2023-01-15T07:36:15.033Z,99745.09
2023-01-15T07:38:43.185Z,99745.38
2023-01-15T07:41:28.393Z,99735.94
2023-01-15T07:44:13.792Z,99745.91
2023-01-15T07:47:00.326Z,99748.53
2023-01-15T07:49:45.372Z,99741.97
2023-01-15T07:52:14.778Z,99737.72
2023-01-15T07:54:42.703Z,99739.59
2023-01-15T07:57:11.372Z,99742.47
2023-01-15T07:59:39.172Z,99729.63
2023-01-15T08:02:07.552Z,99733.31
2023-01-15T08:04:35.214Z,99725.41
2023-01-15T08:07:03.711Z,99736.88
2023-01-15T08:09:33.095Z,99720.09
2023-01-15T08:12:19.189Z,99726.41
2023-01-15T08:15:05.098Z,99730.34
2023-01-15T08:17:34.749Z,99737.97
2023-01-15T08:20:03.408Z,99737.69
2023-01-15T08:22:31.224Z,99737.94
2023-01-15T08:25:00.444Z,99744.72
2023-01-15T08:27:29.003Z,99734.72
2023-01-15T08:29:56.912Z,99747.31
2023-01-15T08:32:24.749Z,99740.19
2023-01-15T08:34:52.615Z,99756.66
2023-01-15T08:37:20.388Z,99738.47
2023-01-15T08:39:48.165Z,99734.50
2023-01-15T08:42:17.517Z,99724.47
2023-01-15T08:44:45.339Z,99749.59
2023-01-15T08:47:13.276Z,99739.56
2023-01-15T08:49:41.049Z,99734.97
2023-01-15T08:52:08.890Z,99737.53
2023-01-15T08:54:36.725Z,99720.66
2023-01-15T08:57:04.892Z,99716.22
2023-01-15T08:59:34.046Z,99715.06
2023-01-15T09:02:02.111Z,99726.03
2023-01-15T09:04:30.000Z,99732.53
2023-01-15T09:06:57.842Z,99728.19
2023-01-15T09:09:25.638Z,99727.34
2023-01-15T09:11:53.413Z,99721.97
2023-01-15T09:14:57.981Z,99721.13
2023-01-15T09:17:10.514Z,99749.38
2023-01-15T09:19:38.318Z,99732.84
2023-01-15T09:22:06.073Z,99746.81
2023-01-15T09:24:33.862Z,99722.91
2023-01-15T09:27:01.795Z,99733.78
2023-01-15T09:29:29.530Z,99756.78
2023-01-15T09:31:57.334Z,99738.72
2023-01-15T09:34:26.451Z,99735.88
2023-01-15T09:36:54.258Z,99734.56
2023-01-15T09:39:22.056Z,99743.34
2023-01-15T09:42:08.074Z,99742.00
2023-01-15T09:45:05.582Z,99739.75
2023-01-15T09:47:39.297Z,99726.19
2023-01-15T09:50:25.760Z,99734.47
2023-01-15T09:53:18.874Z,99714.50
2023-01-15T09:55:49.015Z,99733.41
2023-01-15T09:58:20.611Z,99745.19
2023-01-15T10:00:50.441Z,99728.69
2023-01-15T10:03:30.046Z,99721.31
2023-01-15T10:06:08.328Z,99744.91
2023-01-15T10:08:39.484Z,99737.22
2023-01-15T10:11:23.041Z,99726.53
2023-01-15T10:13:57.305Z,99732.22
2023-01-15T10:16:28.514Z,99733.00
2023-01-15T10:18:59.146Z,99730.19
2023-01-15T10:21:38.648Z,99722.75
2023-01-15T10:24:11.279Z,99728.97
2023-01-15T10:26:43.314Z,99747.31
2023-01-15T10:29:19.024Z,99730.59
2023-01-15T10:31:52.000Z,99725.56
2023-01-15T10:34:45.858Z,99743.78
2023-01-15T10:37:21.889Z,99739.81
2023-01-15T10:40:03.434Z,99734.66
2023-01-15T10:42:43.783Z,99750.53
2023-01-15T10:45:17.165Z,99755.59
2023-01-15T10:47:49.780Z,99757.78
2023-01-15T10:50:20.209Z,99734.47
2023-01-15T10:52:57.931Z,99762.09
2023-01-15T10:55:29.657Z,99750.66
2023-01-15T10:58:11.349Z,99755.16
2023-01-15T11:00:39.753Z,99751.16
2023-01-15T11:03:15.062Z,99762.75
2023-01-15T11:05:45.801Z,99801.50
2023-01-15T11:09:08.060Z,99791.66
2023-01-15T11:11:21.661Z,99756.31
2023-01-15T11:14:13.825Z,99750.34
2023-01-15T11:17:15.940Z,99745.19
2023-01-15T11:19:45.188Z,99787.66
2023-01-15T11:22:16.083Z,99780.44
2023-01-15T11:24:50.740Z,99748.72
2023-01-15T11:27:21.516Z,99754.09
2023-01-15T11:29:53.552Z,99730.38
2023-01-15T11:32:27.945Z,99780.03
2023-01-15T11:34:57.938Z,99755.75
2023-01-15T11:37:26.111Z,99752.91
2023-01-15T11:39:56.156Z,99783.13
2023-01-15T11:42:41.778Z,99793.34
2023-01-15T11:45:33.772Z,99754.94
2023-01-15T11:48:18.952Z,99752.75
2023-01-15T11:50:53.805Z,99753.84
2023-01-15T11:53:25.042Z,99757.25
2023-01-15T11:56:03.500Z,99764.66
2023-01-15T11:58:35.462Z,99747.69
2023-01-15T12:01:03.386Z,99755.91
2023-01-15T12:03:36.056Z,99761.44
2023-01-15T12:06:06.406Z,99749.16
2023-01-15T12:08:48.640Z,99748.19
2023-01-15T12:11:33.340Z,99731.53
2023-01-15T12:14:14.792Z,99742.63
2023-01-15T12:16:49.784Z,99748.94
2023-01-15T12:19:26.636Z,99738.09
2023-01-15T12:22:14.073Z,99782.13
2023-01-15T12:25:13.546Z,99736.09
2023-01-15T12:27:58.409Z,99777.75
2023-01-15T12:30:33.896Z,99713.78
2023-01-15T12:33:12.825Z,99733.75
2023-01-15T12:35:44.474Z,99754.53
2023-01-15T12:38:19.246Z,99761.56
2023-01-15T12:40:51.810Z,99746.16
2023-01-15T12:43:40.437Z,99760.91
2023-01-15T12:46:11.730Z,99758.22
2023-01-15T12:48:47.119Z,99752.53
2023-01-15T12:51:24.397Z,99766.75
2023-01-15T12:53:56.799Z,99747.38
2023-01-15T12:56:29.119Z,99767.13
2023-01-15T12:59:05.250Z,99748.44
2023-01-15T13:01:39.091Z,99758.44
2023-01-15T13:04:15.897Z,99762.88
2023-01-15T13:06:48.908Z,99760.00
2023-01-15T13:09:27.258Z,99751.56
2023-01-15T13:11:55.127Z,99764.69
2023-01-15T13:14:25.362Z,99767.31
2023-01-15T13:16:59.390Z,99762.59
2023-01-15T13:19:36.814Z,99763.25
2023-01-15T13:22:11.790Z,99763.69
2023-01-15T13:24:56.517Z,99761.91
2023-01-15T13:27:39.186Z,99785.25
2023-01-15T13:30:22.375Z,99770.28
2023-01-15T13:32:53.376Z,99816.50
2023-01-15T13:35:29.820Z,99740.78
2023-01-15T13:38:00.675Z,99765.41
2023-01-15T13:40:32.852Z,99775.78
2023-01-15T13:43:00.954Z,99766.47
2023-01-15T13:45:37.434Z,99772.53
2023-01-15T13:48:09.948Z,99779.13
2023-01-15T13:50:43.106Z,99777.56
2023-01-15T13:53:22.399Z,99785.16
2023-01-15T13:55:53.344Z,99788.63
2023-01-15T13:58:24.771Z,99786.84
2023-01-15T14:01:06.369Z,99784.28
2023-01-15T14:03:38.147Z,99787.75
2023-01-15T14:06:07.841Z,99798.81
2023-01-15T14:08:41.662Z,99794.91
2023-01-15T14:11:36.854Z,99795.44
2023-01-15T14:14:31.987Z,99797.53
2023-01-15T14:17:23.035Z,99803.59
2023-01-15T14:20:11.633Z,99801.25
2023-01-15T14:23:03.913Z,99823.34
2023-01-15T14:25:45.641Z,99799.22
2023-01-15T14:28:28.146Z,99806.06
2023-01-15T14:31:32.273Z,99816.56
2023-01-15T14:34:14.423Z,99823.44
2023-01-15T14:36:50.402Z,99802.22
2023-01-15T14:39:31.904Z,99797.75
2023-01-15T14:42:25.280Z,99820.31
2023-01-15T14:45:02.561Z,99814.03
2023-01-15T14:47:35.615Z,99832.91
2023-01-15T14:50:25.387Z,99836.22
2023-01-15T14:52:55.494Z,99840.91
2023-01-15T14:55:24.019Z,99835.63
2023-01-15T14:57:58.746Z,99838.41
2023-01-15T15:00:35.213Z,99840.22
2023-01-15T15:03:04.571Z,99848.34
2023-01-15T15:05:35.463Z,99832.81
2023-01-15T15:08:05.540Z,99847.72
2023-01-15T15:10:37.596Z,99849.03
2023-01-15T15:13:14.699Z,99852.94
2023-01-15T15:15:48.990Z,99854.53
2023-01-15T15:18:27.980Z,99848.69
2023-01-15T15:21:05.156Z,99856.31
2023-01-15T15:23:39.918Z,99869.44
2023-01-15T15:26:20.877Z,99850.31
2023-01-15T15:28:57.370Z,99842.97
2023-01-15T15:31:26.500Z,99843.56
2023-01-15T15:33:55.697Z,99845.41
2023-01-15T15:36:27.133Z,99860.84
2023-01-15T15:38:55.889Z,99864.00
2023-01-15T15:41:41.562Z,99859.28
2023-01-15T15:44:33.542Z,99862.16
2023-01-15T15:47:35.544Z,99873.97
2023-01-15T15:50:03.384Z,99883.97
2023-01-15T15:52:35.585Z,99878.72
2023-01-15T15:55:06.044Z,99877.94
2023-01-15T15:57:36.091Z,99891.34
2023-01-15T16:00:06.496Z,99876.66
2023-01-15T16:02:41.436Z,99903.97
2023-01-15T16:05:23.327Z,99894.00
2023-01-15T16:07:52.756Z,99893.50
2023-01-15T16:10:25.783Z,99890.88
2023-01-15T16:12:55.922Z,99885.94
2023-01-15T16:15:27.005Z,99896.44
2023-01-15T16:17:55.306Z,99894.66
2023-01-15T16:20:23.601Z,99889.16
2023-01-15T16:22:57.174Z,99900.22
2023-01-15T16:25:27.167Z,99902.84
2023-01-15T16:27:55.064Z,99911.47
2023-01-15T16:30:23.169Z,99920.41
2023-01-15T16:32:53.368Z,99913.59
2023-01-15T16:35:23.185Z,99934.31
2023-01-15T16:37:53.276Z,99946.38
2023-01-15T16:40:28.709Z,99922.53
2023-01-15T16:43:06.947Z,99912.66
2023-01-15T16:45:37.846Z,99915.91
2023-01-15T16:48:29.770Z,99912.38
2023-01-15T16:50:58.273Z,99918.69
2023-01-15T16:53:33.006Z,99913.22
2023-01-15T16:56:02.423Z,99921.59
2023-01-15T16:58:36.341Z,99908.78
2023-01-15T17:01:33.351Z,99914.03
2023-01-15T17:04:02.181Z,99914.00
2023-01-15T17:06:30.500Z,99898.53
2023-01-15T17:08:59.173Z,99909.28
2023-01-15T17:11:33.349Z,99908.69
2023-01-15T17:14:12.570Z,99910.19
2023-01-15T17:16:40.407Z,99917.97
2023-01-15T17:19:08.816Z,99921.56
2023-01-15T17:21:37.819Z,99909.97
2023-01-15T17:24:08.764Z,99924.16
2023-01-15T17:26:43.838Z,99926.00
2023-01-15T17:29:14.454Z,99929.91
2023-01-15T17:31:45.810Z,99932.03
2023-01-15T17:34:14.226Z,99928.34
2023-01-15T17:36:42.154Z,99934.94
2023-01-15T17:39:13.275Z,99929.47
2023-01-15T17:41:41.227Z,99921.84
2023-01-15T17:44:11.927Z,99930.00
2023-01-15T17:46:39.818Z,99926.06
2023-01-15T17:49:07.812Z,99931.31
2023-01-15T17:51:35.869Z,99946.25
2023-01-15T17:54:03.720Z,99922.91
2023-01-15T17:56:49.067Z,99920.56
2023-01-15T17:59:35.913Z,99931.31
2023-01-15T18:02:23.742Z,99925.28
2023-01-15T18:05:12.001Z,99940.50
2023-01-15T18:07:43.270Z,99934.47
2023-01-15T18:10:18.214Z,99932.63
2023-01-15T18:12:46.167Z,99934.22
2023-01-15T18:15:16.757Z,99932.63
2023-01-15T18:17:45.384Z,99939.47
2023-01-15T18:20:13.958Z,99944.72
2023-01-15T18:22:41.806Z,99922.44
2023-01-15T18:25:11.881Z,99923.75
2023-01-15T18:27:43.311Z,99939.50
2023-01-15T18:30:12.697Z,99930.34
2023-01-15T18:32:43.653Z,99927.47
2023-01-15T18:35:11.966Z,99934.84
2023-01-15T18:37:39.777Z,99929.31
2023-01-15T18:40:09.052Z,99917.22
2023-01-15T18:42:57.104Z,99918.31
2023-01-15T18:45:42.472Z,99914.91
2023-01-15T18:48:11.948Z,99931.94
2023-01-15T18:50:39.772Z,99934.84
2023-01-15T18:53:08.557Z,99924.88
2023-01-15T18:55:36.386Z,99927.22
2023-01-15T18:58:04.261Z,99920.16
2023-01-15T19:00:32.148Z,99924.09
2023-01-15T19:02:59.939Z,99919.66
2023-01-15T19:05:29.126Z,99921.75
2023-01-15T19:07:57.306Z,99914.41
2023-01-15T19:10:25.280Z,99927.53
2023-01-15T19:12:53.093Z,99930.72
2023-01-15T19:15:38.725Z,99920.47
2023-01-15T19:18:24.152Z,99918.94
2023-01-15T19:20:53.290Z,99915.53
2023-01-15T19:23:21.867Z,99921.56
2023-01-15T19:25:49.899Z,99917.66
2023-01-15T19:28:20.052Z,99910.81
2023-01-15T19:31:10.696Z,99918.44
2023-01-15T19:33:38.707Z,99911.91
2023-01-15T19:36:08.584Z,99905.38
2023-01-15T19:38:37.888Z,99907.47
2023-01-15T19:41:39.505Z,99898.81
2023-01-15T19:44:24.764Z,99908.25
2023-01-15T19:47:09.898Z,99892.56
2023-01-15T19:49:56.342Z,99896.75
2023-01-15T19:52:37.955Z,99895.47
2023-01-15T19:55:10.627Z,99895.97
2023-01-15T19:57:38.524Z,99891.00
2023-01-15T20:00:08.681Z,99887.84
2023-01-15T20:02:37.736Z,99890.47
2023-01-15T20:05:07.128Z,99878.44
2023-01-15T20:07:36.776Z,99883.16
2023-01-15T20:10:08.341Z,99887.88
2023-01-15T20:12:53.458Z,99871.63
2023-01-15T20:15:22.503Z,99858.53
2023-01-15T20:17:52.186Z,99867.72
2023-01-15T20:20:21.536Z,99863.25
2023-01-15T20:22:51.001Z,99859.09
2023-01-15T20:25:19.083Z,99858.31
2023-01-15T20:27:46.899Z,99850.72
2023-01-15T20:30:16.673Z,99854.13
2023-01-15T20:32:47.185Z,99857.28
2023-01-15T20:35:18.808Z,99849.16
2023-01-15T20:37:47.927Z,99848.63
2023-01-15T20:40:17.871Z,99847.31
2023-01-15T20:43:03.335Z,99829.56
2023-01-15T20:45:31.651Z,99840.28
2023-01-15T20:48:16.747Z,99835.03
2023-01-15T20:51:00.371Z,99826.66
2023-01-15T20:53:30.240Z,99825.88
2023-01-15T20:55:59.463Z,99823.25
2023-01-15T20:58:27.582Z,99818.28
2023-01-15T21:00:57.179Z,99814.66
2023-01-15T21:03:24.978Z,99818.53
2023-01-15T21:05:57.650Z,99814.88
2023-01-15T21:08:25.465Z,99801.78
2023-01-15T21:10:54.276Z,99804.13
2023-01-15T21:13:24.373Z,99801.00
2023-01-15T21:15:58.011Z,99796.56
2023-01-15T21:18:26.741Z,99794.22
2023-01-15T21:20:54.615Z,99791.59
2023-01-15T21:23:23.392Z,99790.28
2023-01-15T21:25:51.408Z,99784.78
2023-01-15T21:28:19.259Z,99790.00
2023-01-15T21:30:48.380Z,99787.63
2023-01-15T21:33:16.195Z,99780.81
2023-01-15T21:35:44.007Z,99778.44
2023-01-15T21:38:11.818Z,99782.09
2023-01-15T21:40:40.369Z,99771.09
2023-01-15T21:43:25.572Z,99770.56
2023-01-15T21:46:02.726Z,99761.63
2023-01-15T21:48:30.613Z,99756.16
2023-01-15T21:50:58.452Z,99750.13
2023-01-15T21:53:26.268Z,99738.03
2023-01-15T21:55:54.078Z,99734.38
2023-01-15T21:58:21.869Z,99733.84
2023-01-15T22:00:50.002Z,99732.25
2023-01-15T22:03:19.173Z,99733.03
2023-01-15T22:05:46.926Z,99716.75
2023-01-15T22:08:16.425Z,99718.00
2023-01-15T22:10:44.205Z,99714.84
2023-01-15T22:13:12.003Z,99710.13
2023-01-15T22:15:39.774Z,99703.28
2023-01-15T22:18:07.558Z,99695.16
2023-01-15T22:20:36.748Z,99690.69
2023-01-15T22:23:04.537Z,99687.81
2023-01-15T22:25:32.353Z,99688.06
2023-01-15T22:28:00.173Z,99693.81
2023-01-15T22:30:27.991Z,99675.47
2023-01-15T22:32:55.809Z,99673.38
2023-01-15T22:35:24.848Z,99671.78
2023-01-15T22:37:54.046Z,99674.41
2023-01-15T22:40:21.805Z,99662.91
2023-01-15T22:42:49.612Z,99666.28
2023-01-15T22:45:18.983Z,99663.41
2023-01-15T22:47:47.737Z,99651.84
2023-01-15T22:50:15.675Z,99644.22
2023-01-15T22:52:43.605Z,99645.00
2023-01-15T22:55:14.262Z,99637.66
2023-01-15T22:57:42.090Z,99626.09
2023-01-15T23:00:11.248Z,99622.44
2023-01-15T23:03:04.864Z,99620.06
2023-01-15T23:05:37.012Z,99619.28
2023-01-15T23:08:04.843Z,99617.41
2023-01-15T23:10:34.046Z,99609.28
2023-01-15T23:13:01.867Z,99606.38
2023-01-15T23:15:30.223Z,99603.75
2023-01-15T23:17:57.856Z,99601.13
2023-01-15T23:20:25.615Z,99596.13
2023-01-15T23:22:53.485Z,99588.78
2023-01-15T23:25:21.270Z,99591.41
2023-01-15T23:27:50.414Z,99587.16
2023-01-15T23:30:18.503Z,99591.34
2023-01-15T23:32:46.333Z,99579.50
2023-01-15T23:35:14.098Z,99581.06
2023-01-15T23:37:41.927Z,99572.91
2023-01-15T23:40:12.483Z,99576.88
2023-01-15T23:42:57.699Z,99562.16
2023-01-15T23:45:44.142Z,99558.25
2023-01-15T23:48:11.894Z,99559.31
2023-01-15T23:50:39.729Z,99554.56
2023-01-15T23:53:07.612Z,99550.41
2023-01-15T23:55:35.394Z,99560.09
2023-01-15T23:58:03.181Z,99555.13
